Glenville, WV

9:34 AM EDT on October 21, 2014 (GMT -0400)
Wood County Wilson | Change Station
CLOSE
Current Station
Airport
Location: Parkersburg,
Elevation: 860 ft
Nearby Weather Stations

Elev 860 ft 39.35 °N, 81.44 °W | Updated 41 minutes ago

Overcast
Overcast
51 °F
Feels Like 51 °F
N
0
Wind Variable Wind from North

Today
High -- | Low -- °F
--% Chance of Precip.
Yesterday
High -- | Low -- °F
Precip. -- in
7:38 AM 6:36 PM
Waning Crescent, 5% visible
Pressure 29.93 in
Visibility 7.0 miles
Clouds Mostly Cloudy 1000 ft
Mostly Cloudy 1500 ft
Overcast 2600 ft
Dew Point 49 °F
Humidity 92%
Rainfall 0.00 in
Snow Depth Not available.
UV 0 out of 12
Pollen .60 out of 12
Air Quality Not available.
Flu Activity Sporadic
METAR KPKB 211253Z 00000KT 7SM BKN010 BKN015 OVC026 11/09 A2993 RMK AO2 SLP134 T01060094

More Conditions Fewer Conditions

Pressure 29.93 in
Visibility 7.0 miles
Clouds Mostly Cloudy 1000 ft
Mostly Cloudy 1500 ft
Overcast 2600 ft
Dew Point 49 °F
Humidity 92%
Rainfall 0.00 in
Snow Depth Not available.
UV 0 out of 12
Pollen .60 out of 12
Air Quality Not available.
Flu Activity Sporadic
METAR KPKB 211253Z 00000KT 7SM BKN010 BKN015 OVC026 11/09 A2993 RMK AO2 SLP134 T01060094

More Conditions Fewer Conditions

10-Day Weather Forecast

Almanac

Astronomy

Oct. 21, 2014 Rise Set
Actual Time 7:38 AM EDT 6:36 PM EDT
Civil Twilight 7:11 AM EDT 7:03 PM EDT
Nautical Twilight 6:40 AM EDT 7:34 PM EDT
Astronomical Twilight 6:09 AM EDT 8:05 PM EDT
Moon 5:22 AM EDT 5:28 PM EDT
Length of Visible Light 11h 51m
Length of Day
10h 57m
Tomorrow will be 2m 23s shorter.
Waning Crescent, 5% of the Moon is Illuminated
Today
Waning Crescent
Oct 23
New
Oct 30
First Quarter
Nov 6
Full
Nov 14
Last Quarter

Today's Extremes

State Highs State Lows

Community

WunderPhotos

Upload Photos

1,763,662 photos uploaded!

Nearby

Snow Depth

Station Depth Elevation
No new snow has been reported.

Earthquake Activity

City Distance Mag. Time & Date
No recent earthquake activity has been reported nearby.
Minimum magnitude displayed is 2.5.

Coastal Water Temperatures

Place Temperature
No Stations Reporting

Nearby Weather Stations